createdAt,value
2019-06-19T00:00:29.753Z,5.77
2019-06-19T00:03:03.196Z,6.40
2019-06-19T00:05:36.086Z,6.20
2019-06-19T00:08:06.289Z,5.87
2019-06-19T00:10:38.450Z,5.80
2019-06-19T00:13:08.886Z,5.50
2019-06-19T00:15:43.329Z,5.13
2019-06-19T00:18:13.316Z,5.90
2019-06-19T00:20:45.070Z,6.03
2019-06-19T00:23:15.328Z,6.50
2019-06-19T00:25:45.809Z,6.60
2019-06-19T00:28:22.481Z,5.87
2019-06-19T00:30:53.040Z,6.40
2019-06-19T00:33:22.681Z,6.40
2019-06-19T00:35:52.313Z,6.20
2019-06-19T00:38:24.596Z,7.03
2019-06-19T00:40:54.460Z,6.73
2019-06-19T00:43:24.243Z,6.47
2019-06-19T00:45:54.184Z,7.20
2019-06-19T00:48:25.476Z,7.50
2019-06-19T00:50:55.778Z,6.90
2019-06-19T00:53:25.505Z,7.97
2019-06-19T00:56:01.362Z,7.40
2019-06-19T00:58:33.137Z,6.30
2019-06-19T01:01:03.164Z,7.17
2019-06-19T01:03:33.338Z,7.33
2019-06-19T01:06:03.022Z,6.53
2019-06-19T01:08:32.912Z,7.00
2019-06-19T01:11:02.735Z,7.40
2019-06-19T01:13:32.868Z,6.83
2019-06-19T01:16:02.554Z,6.80
2019-06-19T01:18:32.557Z,7.30
2019-06-19T01:21:02.240Z,7.07
2019-06-19T01:23:33.270Z,6.30
2019-06-19T01:26:03.250Z,7.20
2019-06-19T01:28:33.208Z,6.17
2019-06-19T01:31:02.915Z,7.00
2019-06-19T01:33:32.997Z,6.70
2019-06-19T01:36:03.829Z,6.70
2019-06-19T01:38:33.452Z,6.90
2019-06-19T01:41:04.274Z,7.17
2019-06-19T01:43:34.484Z,7.50
2019-06-19T01:46:05.010Z,6.60
2019-06-19T01:48:35.158Z,7.30
2019-06-19T01:51:05.384Z,7.70
2019-06-19T01:54:11.412Z,7.77
2019-06-19T01:56:41.205Z,7.00
2019-06-19T01:59:11.065Z,7.23
2019-06-19T02:01:41.944Z,7.40
2019-06-19T02:04:13.849Z,7.37
2019-06-19T02:06:43.743Z,7.47
2019-06-19T02:09:13.524Z,7.63
2019-06-19T02:11:43.223Z,6.97
2019-06-19T02:14:13.137Z,7.80
2019-06-19T02:16:43.029Z,7.57
2019-06-19T02:19:13.171Z,7.90
2019-06-19T02:21:43.429Z,7.27
2019-06-19T02:24:14.085Z,7.60
2019-06-19T02:26:45.434Z,8.10
2019-06-19T02:29:15.334Z,7.90
2019-06-19T02:31:45.353Z,8.37
2019-06-19T02:34:16.085Z,7.83
2019-06-19T02:36:46.170Z,7.80
2019-06-19T02:39:15.971Z,8.20
2019-06-19T02:41:45.869Z,8.97
2019-06-19T02:44:15.817Z,9.17
2019-06-19T02:46:45.702Z,8.03
2019-06-19T02:49:15.438Z,7.80
2019-06-19T02:51:45.316Z,8.80
2019-06-19T02:54:15.179Z,8.37
2019-06-19T02:56:45.604Z,8.10
2019-06-19T02:59:15.345Z,8.23
2019-06-19T03:01:45.824Z,8.10
2019-06-19T03:04:16.853Z,7.23
2019-06-19T03:06:47.890Z,6.50
2019-06-19T03:09:17.544Z,7.60
2019-06-19T03:11:47.577Z,7.77
2019-06-19T03:14:17.264Z,6.80
2019-06-19T03:16:46.951Z,7.50
2019-06-19T03:19:16.779Z,6.97
2019-06-19T03:21:46.583Z,6.73
2019-06-19T03:24:17.421Z,7.17
2019-06-19T03:26:48.064Z,7.60
2019-06-19T03:29:18.043Z,7.37
2019-06-19T03:31:48.185Z,6.90
2019-06-19T03:34:17.927Z,6.50
2019-06-19T03:36:47.992Z,6.80
2019-06-19T03:39:18.119Z,6.80
2019-06-19T03:41:48.653Z,6.90
2019-06-19T03:44:18.524Z,6.93
2019-06-19T03:46:49.777Z,6.13
2019-06-19T03:49:20.806Z,6.87
2019-06-19T03:51:50.685Z,6.43
2019-06-19T03:54:22.422Z,6.43
2019-06-19T03:56:52.170Z,6.97
2019-06-19T03:59:23.122Z,6.70
2019-06-19T04:01:52.900Z,6.33
2019-06-19T04:04:22.492Z,6.83
2019-06-19T04:06:52.090Z,5.83
2019-06-19T04:09:22.172Z,5.80
2019-06-19T04:11:52.037Z,6.47
2019-06-19T04:14:21.659Z,6.17
2019-06-19T04:16:51.467Z,6.37
2019-06-19T04:19:21.781Z,6.00
2019-06-19T04:21:53.649Z,6.40
2019-06-19T04:24:23.345Z,5.97
2019-06-19T04:26:53.048Z,6.40
2019-06-19T04:29:25.338Z,6.00
2019-06-19T04:32:05.207Z,6.90
2019-06-19T04:34:27.691Z,6.50
2019-06-19T04:36:57.842Z,6.50
2019-06-19T04:39:29.859Z,6.23
2019-06-19T04:42:01.544Z,6.53
2019-06-19T04:44:40.268Z,6.60
2019-06-19T04:47:11.221Z,7.07
2019-06-19T04:49:41.807Z,7.30
2019-06-19T04:52:12.907Z,7.00
2019-06-19T04:54:42.914Z,7.30
2019-06-19T04:57:12.905Z,7.00
2019-06-19T04:59:43.542Z,6.30
2019-06-19T05:02:21.056Z,6.70
2019-06-19T05:04:45.048Z,6.97
2019-06-19T05:07:15.306Z,7.23
2019-06-19T05:09:45.379Z,7.10
2019-06-19T05:12:15.900Z,7.63
2019-06-19T05:14:46.025Z,7.23
2019-06-19T05:17:15.876Z,6.67
2019-06-19T05:19:45.918Z,7.20
2019-06-19T05:22:15.851Z,7.13
2019-06-19T05:24:45.518Z,6.60
2019-06-19T05:27:18.025Z,6.67
2019-06-19T05:29:48.060Z,6.90
2019-06-19T05:32:17.923Z,7.47
2019-06-19T05:34:47.597Z,7.97
2019-06-19T05:37:17.413Z,8.40
2019-06-19T05:39:48.157Z,7.47
2019-06-19T05:42:18.053Z,7.30
2019-06-19T05:44:47.890Z,7.70
2019-06-19T05:47:18.483Z,7.43
2019-06-19T05:49:49.044Z,7.33
2019-06-19T05:52:21.649Z,7.40
2019-06-19T05:54:52.962Z,7.97
2019-06-19T05:57:23.021Z,7.80
2019-06-19T05:59:55.698Z,7.23
2019-06-19T06:02:24.487Z,6.83
2019-06-19T06:04:54.212Z,7.00
2019-06-19T06:07:24.055Z,7.37
2019-06-19T06:09:53.792Z,7.03
2019-06-19T06:12:24.897Z,7.27
2019-06-19T06:14:55.281Z,6.60
2019-06-19T06:17:26.038Z,7.40
2019-06-19T06:20:10.059Z,6.90
2019-06-19T06:22:40.021Z,6.13
2019-06-19T06:25:10.224Z,6.67
2019-06-19T06:27:40.349Z,6.27
2019-06-19T06:30:11.189Z,6.40
2019-06-19T06:32:41.548Z,6.67
2019-06-19T06:35:11.955Z,6.63
2019-06-19T06:37:42.268Z,6.70
2019-06-19T06:40:12.482Z,7.10
2019-06-19T06:42:42.812Z,7.00
2019-06-19T06:45:13.318Z,6.33
2019-06-19T06:47:44.266Z,7.30
2019-06-19T06:50:14.385Z,7.17
2019-06-19T06:52:44.415Z,6.70
2019-06-19T06:55:17.500Z,6.60
2019-06-19T06:57:46.407Z,6.47
2019-06-19T07:00:24.413Z,6.80
2019-06-19T07:02:54.254Z,6.90
2019-06-19T07:05:28.619Z,6.57
2019-06-19T07:07:58.548Z,5.83
2019-06-19T07:10:28.657Z,6.03
2019-06-19T07:12:59.082Z,6.03
2019-06-19T07:15:30.000Z,6.17
2019-06-19T07:18:00.221Z,6.23
2019-06-19T07:20:31.097Z,6.50
2019-06-19T07:23:03.125Z,6.93
2019-06-19T07:25:33.402Z,6.80
2019-06-19T07:28:03.152Z,6.77
2019-06-19T07:30:33.174Z,6.90
2019-06-19T07:33:03.553Z,6.20
2019-06-19T07:35:33.901Z,7.03
2019-06-19T07:38:55.294Z,6.77
2019-06-19T07:41:26.325Z,6.27
2019-06-19T07:43:58.677Z,6.20
2019-06-19T07:46:33.617Z,6.77
2019-06-19T07:49:04.162Z,6.50
2019-06-19T07:51:34.905Z,6.20
2019-06-19T07:54:04.897Z,6.40
2019-06-19T07:56:35.430Z,6.90
2019-06-19T07:59:05.285Z,7.40
2019-06-19T08:01:35.568Z,6.70
2019-06-19T08:04:05.577Z,6.30
2019-06-19T08:06:35.493Z,7.00
2019-06-19T08:09:06.689Z,6.47
2019-06-19T08:11:39.611Z,6.43
2019-06-19T08:14:39.333Z,6.77
2019-06-19T08:17:10.964Z,5.60
2019-06-19T08:19:45.016Z,5.60
2019-06-19T08:22:15.396Z,5.50
2019-06-19T08:24:45.639Z,5.47
2019-06-19T08:27:20.325Z,5.90
2019-06-19T08:33:21.039Z,5.40
2019-06-19T08:35:50.654Z,5.50
2019-06-19T08:38:20.856Z,5.90
2019-06-19T08:41:00.263Z,6.40
2019-06-19T08:43:23.793Z,5.87
2019-06-19T08:45:55.972Z,5.93
2019-06-19T08:48:28.793Z,6.00
2019-06-19T08:50:58.604Z,5.40
2019-06-19T08:53:32.030Z,5.83
2019-06-19T08:56:06.235Z,5.50
2019-06-19T08:58:36.459Z,5.40
2019-06-19T09:01:06.564Z,5.37
2019-06-19T09:03:36.809Z,4.60
2019-06-19T09:06:09.004Z,5.20
2019-06-19T09:08:39.000Z,5.80
2019-06-19T09:11:13.414Z,5.17
2019-06-19T09:14:02.562Z,5.30
2019-06-19T09:16:33.152Z,5.50
2019-06-19T09:19:05.406Z,5.37
2019-06-19T09:21:37.645Z,5.33
2019-06-19T09:24:08.035Z,5.43
2019-06-19T09:26:41.134Z,5.63
2019-06-19T09:29:14.919Z,5.00
2019-06-19T09:31:44.814Z,4.87
2019-06-19T09:34:14.723Z,5.50
2019-06-19T09:36:46.476Z,5.37
2019-06-19T09:39:21.239Z,5.37
2019-06-19T09:41:57.907Z,5.67
2019-06-19T09:44:30.683Z,4.67
2019-06-19T09:47:02.442Z,5.30
2019-06-19T09:49:36.679Z,4.87
2019-06-19T09:52:09.775Z,5.00
2019-06-19T09:54:44.138Z,5.23
2019-06-19T09:57:17.768Z,5.60
2019-06-19T09:59:50.480Z,5.07
2019-06-19T10:02:24.124Z,4.87
2019-06-19T10:05:06.746Z,4.30
2019-06-19T10:07:31.255Z,4.70
2019-06-19T10:10:04.481Z,4.50
2019-06-19T10:12:37.508Z,4.63
2019-06-19T10:15:10.434Z,4.80
2019-06-19T10:17:45.270Z,4.93
2019-06-19T10:20:19.998Z,4.70
2019-06-19T10:22:52.859Z,4.50
2019-06-19T10:25:26.146Z,4.90
2019-06-19T10:27:59.305Z,4.10
2019-06-19T10:30:37.044Z,5.37
2019-06-19T10:33:09.714Z,4.60
2019-06-19T10:35:43.663Z,4.50
2019-06-19T10:38:18.955Z,4.90
2019-06-19T10:40:56.233Z,4.40
2019-06-19T10:43:28.984Z,4.30
2019-06-19T10:46:01.992Z,5.03
2019-06-19T10:48:34.797Z,4.40
2019-06-19T10:51:07.215Z,4.27
2019-06-19T10:53:39.445Z,4.53
2019-06-19T10:56:12.714Z,5.70
2019-06-19T10:58:46.942Z,4.90
2019-06-19T11:01:19.753Z,5.00
2019-06-19T11:03:52.548Z,4.73
2019-06-19T11:06:24.621Z,4.40
2019-06-19T11:08:55.702Z,5.43
2019-06-19T11:11:27.544Z,4.27
2019-06-19T11:14:00.184Z,4.23
2019-06-19T11:16:32.828Z,4.80
2019-06-19T11:19:05.027Z,5.00
2019-06-19T11:21:37.422Z,4.10
2019-06-19T11:24:09.764Z,4.50
2019-06-19T11:26:45.815Z,4.47
2019-06-19T11:29:18.033Z,5.20
2019-06-19T11:31:52.040Z,4.60
2019-06-19T11:34:25.922Z,4.80
2019-06-19T11:36:58.697Z,4.17
2019-06-19T11:39:31.188Z,4.13
2019-06-19T11:42:04.840Z,4.27
2019-06-19T11:44:37.190Z,4.03
2019-06-19T11:47:09.542Z,4.30
2019-06-19T11:49:42.172Z,4.03
2019-06-19T11:52:17.890Z,4.40
2019-06-19T11:54:50.579Z,4.30
2019-06-19T11:57:23.568Z,4.30
2019-06-19T11:59:56.298Z,4.40
2019-06-19T12:02:29.013Z,3.60
2019-06-19T12:05:05.080Z,4.00
2019-06-19T12:07:38.417Z,4.20
2019-06-19T12:10:11.048Z,4.17
2019-06-19T12:12:43.231Z,4.30
2019-06-19T12:15:16.332Z,3.80
2019-06-19T12:17:48.428Z,3.93
2019-06-19T12:20:21.094Z,3.63
2019-06-19T12:22:54.388Z,5.70
2019-06-19T12:25:26.312Z,4.23
2019-06-19T12:27:59.953Z,3.90
2019-06-19T12:30:30.693Z,3.87
2019-06-19T12:33:05.645Z,4.30
2019-06-19T12:35:39.561Z,4.37
2019-06-19T12:38:10.329Z,4.40
2019-06-19T12:40:42.213Z,4.60
2019-06-19T12:43:14.628Z,3.80
2019-06-19T12:45:47.343Z,4.00
2019-06-19T12:48:20.401Z,4.30
2019-06-19T12:50:52.854Z,4.17
2019-06-19T12:53:24.886Z,4.00
2019-06-19T12:55:57.027Z,4.23
2019-06-19T12:58:29.841Z,4.03
2019-06-19T13:01:00.454Z,3.30
2019-06-19T13:03:33.298Z,4.07
2019-06-19T13:06:05.693Z,4.03
2019-06-19T13:08:37.887Z,4.20
2019-06-19T13:11:10.505Z,3.77
2019-06-19T13:13:44.748Z,3.40
2019-06-19T13:16:14.973Z,3.57
2019-06-19T13:18:46.816Z,3.57
2019-06-19T13:21:21.357Z,3.57
2019-06-19T13:23:55.485Z,3.73
2019-06-19T13:26:25.974Z,3.50
2019-06-19T13:28:59.710Z,2.90
2019-06-19T13:31:31.806Z,3.50
2019-06-19T13:34:03.928Z,3.07
2019-06-19T13:36:35.995Z,2.60
2019-06-19T13:39:08.599Z,2.80
2019-06-19T13:41:39.970Z,2.57
2019-06-19T13:44:10.570Z,2.87
2019-06-19T13:46:41.122Z,3.33
2019-06-19T13:49:13.176Z,3.10
2019-06-19T13:51:43.833Z,3.33
2019-06-19T13:54:29.894Z,2.90
2019-06-19T13:56:50.959Z,2.93
2019-06-19T13:59:23.637Z,3.70
2019-06-19T14:01:55.786Z,3.00
2019-06-19T14:04:28.170Z,2.97
2019-06-19T14:07:00.135Z,2.90
2019-06-19T14:09:32.239Z,2.90
2019-06-19T14:12:05.086Z,3.07
2019-06-19T14:14:37.638Z,3.30
2019-06-19T14:17:09.744Z,2.57
2019-06-19T14:19:42.790Z,2.70
2019-06-19T14:22:15.743Z,3.03
2019-06-19T14:24:47.974Z,2.77
2019-06-19T14:27:20.289Z,2.70
2019-06-19T14:29:52.803Z,2.80
2019-06-19T14:32:25.432Z,2.93
2019-06-19T14:34:57.800Z,2.93
2019-06-19T14:37:36.485Z,2.50
2019-06-19T14:40:05.507Z,3.47
2019-06-19T14:42:38.181Z,3.07
2019-06-19T14:45:13.323Z,3.13
2019-06-19T14:47:45.558Z,3.50
2019-06-19T14:50:18.138Z,3.37
2019-06-19T14:52:50.686Z,2.93
2019-06-19T14:55:23.189Z,2.93
2019-06-19T14:57:55.970Z,2.90
2019-06-19T15:00:33.009Z,2.90
2019-06-19T15:03:06.165Z,2.57
2019-06-19T15:05:38.450Z,2.70
2019-06-19T15:08:10.809Z,2.77
2019-06-19T15:10:43.224Z,2.87
2019-06-19T15:13:17.147Z,2.40
2019-06-19T15:15:49.631Z,2.40
2019-06-19T15:18:20.779Z,3.10
2019-06-19T15:20:55.881Z,3.00
2019-06-19T15:23:29.210Z,2.90
2019-06-19T15:26:05.382Z,3.00
2019-06-19T15:28:37.944Z,2.90
2019-06-19T15:31:11.198Z,3.80
2019-06-19T15:33:43.289Z,3.20
2019-06-19T15:36:15.822Z,2.80
2019-06-19T15:38:48.555Z,3.37
2019-06-19T15:41:21.237Z,2.80
2019-06-19T15:43:54.830Z,2.97
2019-06-19T15:46:28.680Z,3.77
2019-06-19T15:49:01.732Z,3.43
2019-06-19T15:51:38.069Z,3.50
2019-06-19T15:54:11.669Z,3.07
2019-06-19T15:56:47.307Z,4.20
2019-06-19T15:59:20.460Z,3.70
2019-06-19T16:01:54.095Z,3.40
2019-06-19T16:04:27.142Z,3.23
2019-06-19T16:06:59.750Z,3.30
2019-06-19T16:09:33.794Z,2.83
2019-06-19T16:12:06.238Z,2.50
2019-06-19T16:14:39.731Z,2.40
2019-06-19T16:17:12.445Z,2.27
2019-06-19T16:19:59.195Z,1.70
2019-06-19T16:22:31.602Z,1.70
2019-06-19T16:25:04.344Z,1.60
2019-06-19T16:27:39.457Z,2.80
2019-06-19T16:30:12.089Z,1.40
2019-06-19T16:32:52.738Z,1.60
2019-06-19T16:35:24.876Z,1.53
2019-06-19T16:37:59.016Z,1.27
2019-06-19T16:40:32.434Z,1.70
2019-06-19T16:43:08.232Z,1.20
2019-06-19T16:45:40.649Z,1.17
2019-06-19T16:48:14.590Z,1.30
2019-06-19T16:50:46.967Z,1.30
2019-06-19T16:53:25.443Z,1.50
2019-06-19T16:55:58.491Z,1.70
2019-06-19T16:58:33.076Z,1.70
2019-06-19T17:01:06.574Z,1.50
2019-06-19T17:03:39.570Z,1.50
2019-06-19T17:06:11.926Z,1.30
2019-06-19T17:09:03.142Z,2.37
2019-06-19T17:11:25.222Z,2.23
2019-06-19T17:13:58.905Z,1.80
2019-06-19T17:16:31.682Z,2.10
2019-06-19T17:19:05.194Z,2.83
2019-06-19T17:21:50.923Z,2.00
2019-06-19T17:24:13.512Z,2.17
2019-06-19T17:26:46.267Z,2.10
2019-06-19T17:29:21.342Z,2.20
2019-06-19T17:31:54.383Z,1.67
2019-06-19T17:34:26.621Z,2.00
2019-06-19T17:37:00.390Z,2.60
2019-06-19T17:39:32.534Z,2.50
2019-06-19T17:42:04.658Z,2.57
2019-06-19T17:44:36.746Z,2.90
2019-06-19T17:47:08.592Z,2.40
2019-06-19T17:49:41.887Z,2.43
2019-06-19T17:52:12.294Z,2.80
2019-06-19T17:54:43.700Z,3.07
2019-06-19T17:57:14.470Z,3.43
2019-06-19T17:59:44.983Z,2.87
2019-06-19T18:02:19.822Z,2.80
2019-06-19T18:04:50.287Z,2.70
2019-06-19T18:07:20.656Z,3.17
2019-06-19T18:09:57.801Z,3.23
2019-06-19T18:12:29.852Z,2.37
2019-06-19T18:15:00.690Z,2.57
2019-06-19T18:17:31.076Z,2.50
2019-06-19T18:20:01.808Z,2.40
2019-06-19T18:22:35.984Z,2.63
2019-06-19T18:25:10.167Z,3.00
2019-06-19T18:27:41.070Z,2.30
2019-06-19T18:30:11.698Z,2.83
2019-06-19T18:32:42.880Z,2.57
2019-06-19T18:35:14.748Z,2.70
2019-06-19T18:37:45.973Z,2.73
2019-06-19T18:40:16.231Z,2.47
2019-06-19T18:42:46.842Z,2.20
2019-06-19T18:45:18.713Z,2.33
2019-06-19T18:47:48.919Z,2.77
2019-06-19T18:50:19.375Z,2.60
2019-06-19T18:52:51.763Z,3.00
2019-06-19T18:55:25.439Z,2.70
2019-06-19T18:57:56.800Z,2.93
2019-06-19T19:00:27.200Z,3.17
2019-06-19T19:02:59.736Z,3.37
2019-06-19T19:05:31.635Z,3.33
2019-06-19T19:08:02.177Z,3.47
2019-06-19T19:10:35.432Z,2.90
2019-06-19T19:13:07.026Z,3.60
2019-06-19T19:15:38.742Z,3.00
2019-06-19T19:18:09.010Z,2.93
2019-06-19T19:20:45.510Z,2.80
2019-06-19T19:23:16.002Z,3.20
2019-06-19T19:25:48.851Z,2.50
2019-06-19T19:28:20.621Z,2.83
2019-06-19T19:30:53.057Z,2.90
2019-06-19T19:33:26.197Z,3.07
2019-06-19T19:36:00.257Z,3.07
2019-06-19T19:38:35.868Z,3.10
2019-06-19T19:41:07.728Z,3.40
2019-06-19T19:43:38.298Z,2.97
2019-06-19T19:46:10.932Z,3.63
2019-06-19T19:48:41.425Z,2.70
2019-06-19T19:51:15.108Z,3.00
2019-06-19T19:53:45.578Z,2.73
2019-06-19T19:56:17.371Z,3.27
2019-06-19T19:58:50.008Z,3.03
2019-06-19T20:01:24.954Z,3.53
2019-06-19T20:03:56.680Z,3.93
2019-06-19T20:06:29.829Z,3.60
2019-06-19T20:09:02.709Z,3.50
2019-06-19T20:11:36.654Z,4.00
2019-06-19T20:14:08.743Z,4.07
2019-06-19T20:16:39.239Z,4.60
2019-06-19T20:19:12.785Z,3.60
2019-06-19T20:21:46.103Z,4.23
2019-06-19T20:24:16.467Z,4.03
2019-06-19T20:26:47.076Z,3.80
2019-06-19T20:29:20.024Z,3.73
2019-06-19T20:31:52.724Z,4.10
2019-06-19T20:34:34.706Z,3.60
2019-06-19T20:37:05.561Z,4.23
2019-06-19T20:39:39.878Z,3.90
2019-06-19T20:42:12.705Z,3.60
2019-06-19T20:44:45.932Z,4.50
2019-06-19T20:47:22.630Z,3.90
2019-06-19T20:49:55.671Z,4.00
2019-06-19T20:52:36.374Z,4.20
2019-06-19T20:55:01.102Z,4.77
2019-06-19T20:57:33.837Z,4.10
2019-06-19T21:00:08.252Z,3.80
2019-06-19T21:02:41.954Z,4.47
2019-06-19T21:05:14.321Z,4.67
2019-06-19T21:07:46.186Z,4.73
2019-06-19T21:10:18.521Z,4.83
2019-06-19T21:12:50.404Z,4.97
2019-06-19T21:15:25.985Z,5.00
2019-06-19T21:17:57.910Z,4.43
2019-06-19T21:20:29.707Z,4.50
2019-06-19T21:23:03.177Z,4.53
2019-06-19T21:25:38.676Z,5.03
2019-06-19T21:28:10.630Z,4.60
2019-06-19T21:30:42.661Z,4.73
2019-06-19T21:33:14.725Z,5.37
2019-06-19T21:35:46.894Z,4.80
2019-06-19T21:38:21.807Z,5.50
2019-06-19T21:40:55.255Z,4.40
2019-06-19T21:43:27.448Z,4.10
2019-06-19T21:45:59.639Z,4.33
2019-06-19T21:48:31.303Z,3.83
2019-06-19T21:51:02.913Z,3.53
2019-06-19T21:53:36.015Z,3.93
2019-06-19T21:56:07.772Z,3.43
2019-06-19T21:58:39.287Z,5.10
2019-06-19T22:01:11.528Z,3.53
2019-06-19T22:03:43.427Z,4.00
2019-06-19T22:06:13.954Z,3.30
2019-06-19T22:08:44.798Z,3.10
2019-06-19T22:11:16.574Z,2.30
2019-06-19T22:13:48.358Z,2.43
2019-06-19T22:16:20.102Z,2.23
2019-06-19T22:18:52.321Z,2.50
2019-06-19T22:21:26.588Z,2.27
2019-06-19T22:23:58.791Z,2.10
2019-06-19T22:26:30.565Z,2.70
2019-06-19T22:29:02.292Z,2.93
2019-06-19T22:31:33.832Z,2.90
2019-06-19T22:34:04.863Z,2.90
2019-06-19T22:36:36.319Z,3.13
2019-06-19T22:39:08.181Z,4.00
2019-06-19T22:41:39.324Z,4.10
2019-06-19T22:44:10.481Z,3.90
2019-06-19T22:46:42.320Z,3.33
2019-06-19T22:49:14.108Z,3.63
2019-06-19T22:51:45.493Z,3.50
2019-06-19T22:54:16.895Z,3.70
2019-06-19T22:56:48.215Z,3.50
2019-06-19T22:59:19.414Z,3.97
2019-06-19T23:02:04.425Z,3.57
2019-06-19T23:04:35.955Z,3.97
2019-06-19T23:07:09.636Z,3.70
2019-06-19T23:09:41.645Z,3.20
2019-06-19T23:12:26.754Z,3.23
2019-06-19T23:14:46.257Z,3.47
2019-06-19T23:17:17.728Z,3.20
2019-06-19T23:19:49.056Z,3.70
2019-06-19T23:22:20.127Z,3.40
2019-06-19T23:24:51.733Z,3.80
2019-06-19T23:27:24.098Z,3.57
2019-06-19T23:29:55.458Z,3.97
2019-06-19T23:32:26.695Z,3.60
2019-06-19T23:34:57.902Z,3.50
2019-06-19T23:37:29.502Z,3.70
2019-06-19T23:40:00.818Z,4.07
2019-06-19T23:42:43.494Z,4.03
2019-06-19T23:45:05.140Z,4.40
2019-06-19T23:47:36.324Z,5.10
2019-06-19T23:50:07.816Z,4.57
2019-06-19T23:52:39.292Z,4.80
2019-06-19T23:55:10.471Z,5.00
2019-06-19T23:57:42.105Z,4.77
